createdAt,value
2019-02-04T00:04:30.672Z,3.93
2019-02-04T00:09:30.438Z,4.00
2019-02-04T00:14:30.151Z,4.07
2019-02-04T00:19:29.860Z,3.37
2019-02-04T00:24:29.482Z,3.50
2019-02-04T00:29:29.132Z,3.40
2019-02-04T00:34:28.790Z,3.03
2019-02-04T00:39:28.442Z,3.60
2019-02-04T00:44:28.103Z,2.93
2019-02-04T00:49:27.752Z,4.67
2019-02-04T00:54:27.783Z,2.77
2019-02-04T00:59:27.687Z,3.23
2019-02-04T01:04:27.335Z,3.30
2019-02-04T01:09:27.150Z,3.40
2019-02-04T01:14:27.111Z,3.23
2019-02-04T01:19:26.827Z,2.60
2019-02-04T01:24:26.731Z,3.10
2019-02-04T01:29:26.367Z,3.20
2019-02-04T01:34:26.007Z,3.53
2019-02-04T01:39:25.979Z,3.70
2019-02-04T01:44:25.639Z,3.50
2019-02-04T01:49:25.909Z,4.10
2019-02-04T01:54:25.546Z,4.20
2019-02-04T01:59:25.478Z,4.40
2019-02-04T02:04:25.111Z,3.97
2019-02-04T02:09:25.004Z,4.47
2019-02-04T02:14:24.794Z,4.10
2019-02-04T02:19:24.532Z,5.10
2019-02-04T02:24:24.171Z,4.00
2019-02-04T02:29:23.915Z,4.00
2019-02-04T02:34:23.559Z,4.10
2019-02-04T02:39:23.206Z,4.07
2019-02-04T02:44:23.203Z,5.00
2019-02-04T02:49:22.831Z,4.73
2019-02-04T02:54:22.498Z,3.80
2019-02-04T02:59:22.136Z,5.50
2019-02-04T03:04:21.766Z,4.70
2019-02-04T03:09:21.410Z,4.40
2019-02-04T03:14:21.147Z,3.30
2019-02-04T03:19:20.782Z,3.77
2019-02-04T03:24:20.413Z,4.00
2019-02-04T03:29:21.031Z,5.70
2019-02-04T03:34:20.642Z,5.47
2019-02-04T03:39:20.579Z,5.80
2019-02-04T03:44:20.251Z,4.33
2019-02-04T03:49:19.971Z,4.73
2019-02-04T03:54:19.955Z,4.73
2019-02-04T03:59:19.689Z,4.47
2019-02-04T04:04:19.327Z,3.90
2019-02-04T04:09:19.338Z,3.47
2019-02-04T04:14:19.039Z,3.73
2019-02-04T04:19:18.678Z,4.63
2019-02-04T04:24:18.615Z,4.10
2019-02-04T04:29:18.282Z,3.90
2019-02-04T04:34:18.315Z,3.50
2019-02-04T04:39:18.063Z,3.70
2019-02-04T04:44:17.739Z,3.50
2019-02-04T04:49:17.379Z,3.53
2019-02-04T04:54:18.006Z,4.27
2019-02-04T04:59:17.635Z,4.07
2019-02-04T05:04:17.510Z,3.20
2019-02-04T05:09:17.239Z,3.83
2019-02-04T05:14:16.872Z,3.90
2019-02-04T05:19:16.527Z,4.17
2019-02-04T05:24:16.178Z,3.63
2019-02-04T05:29:16.210Z,3.20
2019-02-04T05:34:16.099Z,3.53
2019-02-04T05:39:15.983Z,3.87
2019-02-04T05:44:15.599Z,3.60
2019-02-04T05:49:15.231Z,3.70
2019-02-04T05:54:14.863Z,3.03
2019-02-04T05:59:14.482Z,4.17
2019-02-04T06:04:14.377Z,2.93
2019-02-04T06:09:14.207Z,3.23
2019-02-04T06:14:13.854Z,5.33
2019-02-04T06:19:13.551Z,3.93
2019-02-04T06:24:13.543Z,4.00
2019-02-04T06:29:14.405Z,3.83
2019-02-04T06:34:14.039Z,3.63
2019-02-04T06:39:13.746Z,3.80
2019-02-04T06:44:13.391Z,4.33
2019-02-04T06:49:13.195Z,3.87
2019-02-04T06:54:12.848Z,4.43
2019-02-04T06:59:12.492Z,4.87
2019-02-04T07:04:12.211Z,6.00
2019-02-04T07:09:12.290Z,6.10
2019-02-04T07:14:12.028Z,6.10
2019-02-04T07:19:23.281Z,7.70
2019-02-04T07:24:13.153Z,8.90
2019-02-04T07:29:12.858Z,9.10
2019-02-04T07:34:12.874Z,8.73
2019-02-04T07:39:12.551Z,8.80
2019-02-04T07:44:12.227Z,6.20
2019-02-04T07:49:12.492Z,8.63
2019-02-04T07:54:12.239Z,10.00
2019-02-04T07:59:11.879Z,11.73
2019-02-04T08:04:11.594Z,9.43
2019-02-04T08:09:11.319Z,11.77
2019-02-04T08:14:11.124Z,11.47
2019-02-04T08:19:10.767Z,9.60
2019-02-04T08:24:10.483Z,10.97
2019-02-04T08:29:10.300Z,11.50
2019-02-04T08:34:10.051Z,11.63
2019-02-04T08:39:09.931Z,13.17
2019-02-04T08:44:09.670Z,6.93
2019-02-04T08:49:09.623Z,14.67
2019-02-04T08:54:09.428Z,8.70
2019-02-04T08:59:09.154Z,11.07
2019-02-04T09:04:08.944Z,10.63
2019-02-04T09:09:09.698Z,11.20
2019-02-04T09:14:09.334Z,8.47
2019-02-04T09:19:09.139Z,8.63
2019-02-04T09:24:08.807Z,14.90
2019-02-04T09:29:08.535Z,10.50
2019-02-04T09:34:08.323Z,12.60
2019-02-04T09:39:09.859Z,11.77
2019-02-04T09:44:10.115Z,13.40
2019-02-04T09:49:09.801Z,12.93
2019-02-04T09:54:09.711Z,13.23
2019-02-04T09:59:09.789Z,6.30
2019-02-04T10:04:09.424Z,10.80
2019-02-04T10:09:10.043Z,14.20
2019-02-04T10:14:09.759Z,12.30
2019-02-04T10:19:09.519Z,10.87
2019-02-04T10:24:09.364Z,14.00
2019-02-04T10:29:09.122Z,10.60
2019-02-04T10:34:09.115Z,10.57
2019-02-04T10:39:09.787Z,11.60
2019-02-04T10:44:10.052Z,10.90
2019-02-04T10:49:10.673Z,10.20
2019-02-04T10:54:10.459Z,12.43
2019-02-04T10:59:10.206Z,11.00
2019-02-04T11:04:09.945Z,9.90
2019-02-04T11:09:10.344Z,10.63
2019-02-04T11:14:10.378Z,10.00
2019-02-04T11:19:10.227Z,10.70
2019-02-04T11:24:10.082Z,9.93
2019-02-04T11:29:10.128Z,10.37
2019-02-04T11:34:10.318Z,9.10
2019-02-04T11:39:10.299Z,10.60
2019-02-04T11:44:10.787Z,8.73
2019-02-04T11:49:10.882Z,9.93
2019-02-04T11:54:10.546Z,8.20
2019-02-04T11:59:10.287Z,8.70
2019-02-04T12:04:09.943Z,8.40
2019-02-04T12:09:10.363Z,7.30
2019-02-04T12:14:10.351Z,7.90
2019-02-04T12:19:10.408Z,8.10
2019-02-04T12:24:10.479Z,6.93
2019-02-04T12:29:11.115Z,7.30
2019-02-04T12:34:10.779Z,6.90
2019-02-04T12:39:19.958Z,8.10
2019-02-04T12:44:19.739Z,5.40
2019-02-04T12:49:20.035Z,7.03
2019-02-04T12:54:19.819Z,6.70
2019-02-04T12:59:20.040Z,5.77
2019-02-04T13:04:19.713Z,6.00
2019-02-04T13:09:19.455Z,6.47
2019-02-04T13:14:19.107Z,6.97
2019-02-04T13:19:18.764Z,5.83
2019-02-04T13:24:18.421Z,6.47
2019-02-04T13:29:18.067Z,5.80
2019-02-04T13:34:17.803Z,5.17
2019-02-04T13:39:17.799Z,5.50
2019-02-04T13:44:17.595Z,6.07
2019-02-04T13:49:17.373Z,4.70
2019-02-04T13:54:17.160Z,5.13
2019-02-04T13:59:16.835Z,4.33
2019-02-04T14:04:16.684Z,4.93
2019-02-04T14:09:18.655Z,4.90
2019-02-04T14:14:18.438Z,4.77
2019-02-04T14:19:18.519Z,5.13
2019-02-04T14:24:18.207Z,3.90
2019-02-04T14:29:18.106Z,6.50
2019-02-04T14:34:17.750Z,5.47
2019-02-04T14:39:17.458Z,4.83
2019-02-04T14:45:10.440Z,4.87
2019-02-04T14:50:35.939Z,4.47
2019-02-04T14:55:58.933Z,4.90
2019-02-04T15:01:26.626Z,4.50
2019-02-04T15:06:52.214Z,5.10
2019-02-04T15:12:28.094Z,4.50
2019-02-04T15:17:55.368Z,4.77
2019-02-04T15:23:23.795Z,6.10
2019-02-04T15:29:03.463Z,6.20
2019-02-04T15:34:27.314Z,5.67
2019-02-04T15:40:04.555Z,7.00
2019-02-04T15:45:44.042Z,5.00
2019-02-04T15:51:11.255Z,6.30
2019-02-04T15:56:11.066Z,6.17
2019-02-04T16:01:10.811Z,7.67
2019-02-04T16:06:10.426Z,6.40
2019-02-04T16:11:10.156Z,6.50
2019-02-04T16:16:09.795Z,7.87
2019-02-04T16:21:09.524Z,8.17
2019-02-04T16:26:09.562Z,8.93
2019-02-04T16:31:10.256Z,6.50
2019-02-04T16:36:09.954Z,6.77
2019-02-04T16:41:09.982Z,6.10
2019-02-04T16:46:09.627Z,6.90
2019-02-04T16:51:11.755Z,7.70
2019-02-04T16:56:11.053Z,6.67
2019-02-04T17:01:10.815Z,7.40
2019-02-04T17:06:10.807Z,4.47
2019-02-04T17:11:10.729Z,7.23
2019-02-04T17:16:10.458Z,7.37
2019-02-04T17:21:10.269Z,7.13
2019-02-04T17:26:10.971Z,5.93
2019-02-04T17:31:10.854Z,5.77
2019-02-04T17:36:10.579Z,5.20
2019-02-04T17:41:10.306Z,5.50
2019-02-04T17:46:10.272Z,6.97
2019-02-04T17:51:10.539Z,5.60
2019-02-04T17:56:11.092Z,4.50
2019-02-04T18:01:10.730Z,6.10
2019-02-04T18:06:10.699Z,6.70
2019-02-04T18:11:10.432Z,6.17
2019-02-04T18:16:10.268Z,5.80
2019-02-04T18:21:10.061Z,6.07
2019-02-04T18:26:10.032Z,6.00
2019-02-04T18:31:10.275Z,3.30
2019-02-04T18:36:10.500Z,5.13
2019-02-04T18:41:10.436Z,6.40
2019-02-04T18:46:10.553Z,8.30
2019-02-04T18:51:11.919Z,6.07
2019-02-04T18:56:11.555Z,6.00
2019-02-04T19:01:11.515Z,5.67
2019-02-04T19:06:11.357Z,6.00
2019-02-04T19:11:11.013Z,5.37
2019-02-04T19:16:10.903Z,4.63
2019-02-04T19:21:10.892Z,6.47
2019-02-04T19:26:10.734Z,5.47
2019-02-04T19:31:16.533Z,4.90
2019-02-04T19:36:18.482Z,6.03
2019-02-04T19:41:17.563Z,6.60
2019-02-04T19:46:18.419Z,5.53
2019-02-04T19:51:18.084Z,3.93
2019-02-04T19:56:18.036Z,4.27
2019-02-04T20:01:18.455Z,5.20
2019-02-04T20:06:18.183Z,5.30
2019-02-04T20:11:17.832Z,3.33
2019-02-04T20:16:18.499Z,4.00
2019-02-04T20:21:18.142Z,4.57
2019-02-04T20:26:17.778Z,5.60
2019-02-04T20:31:17.651Z,5.97
2019-02-04T20:36:17.812Z,5.37
2019-02-04T20:41:17.718Z,4.87
2019-02-04T20:46:17.583Z,4.13
2019-02-04T20:51:17.949Z,5.87
2019-02-04T20:56:17.593Z,5.50
2019-02-04T21:01:17.247Z,4.63
2019-02-04T21:06:17.083Z,5.63
2019-02-04T21:11:16.727Z,5.83
2019-02-04T21:16:16.610Z,4.10
2019-02-04T21:21:16.267Z,5.93
2019-02-04T21:26:15.905Z,5.70
2019-02-04T21:31:15.780Z,4.93
2019-02-04T21:36:15.497Z,3.57
2019-02-04T21:41:15.287Z,5.80
2019-02-04T21:46:14.923Z,4.43
2019-02-04T21:51:14.567Z,4.40
2019-02-04T21:56:14.222Z,3.10
2019-02-04T22:01:14.197Z,4.90
2019-02-04T22:06:13.885Z,3.30
2019-02-04T22:11:13.612Z,4.77
2019-02-04T22:16:13.255Z,4.43
2019-02-04T22:21:12.946Z,1.67
2019-02-04T22:26:12.594Z,3.80
2019-02-04T22:31:12.557Z,3.27
2019-02-04T22:36:12.359Z,4.33
2019-02-04T22:41:11.991Z,3.20
2019-02-04T22:46:11.883Z,4.07
2019-02-04T22:51:11.895Z,5.23
2019-02-04T22:56:11.547Z,3.50
2019-02-04T23:01:47.875Z,3.80
2019-02-04T23:06:47.587Z,3.47
2019-02-04T23:11:48.294Z,2.67
2019-02-04T23:16:48.250Z,2.97
2019-02-04T23:21:49.094Z,4.10
2019-02-04T23:26:48.746Z,3.37
2019-02-04T23:31:48.412Z,2.87
2019-02-04T23:36:48.100Z,2.93
2019-02-04T23:41:47.730Z,2.57
2019-02-04T23:46:47.362Z,3.87
2019-02-04T23:51:47.500Z,4.67
2019-02-04T23:56:47.496Z,4.10
